Udaipur Airport
VAUD : now visible

Airfield :











YOU CAN JOIN US ON...

 
LOGIN :

Register | Disclaimer

   EN    FR    IT 

 









Legend :    VFR   Marginal VFR   IFR   Intensive IFR   Very Intensive IFR
Visi :
Ceiling :
>= 8 km
>= 3000ft
5 to 8 km
1000 to 3000 ft
1500m to 5 km
500 to 1000 ft
800 to 1500m
200 to 500 ft
< 800m
< 200 ft
Symbols :   Thunderstorms  Fog  Heavy snow  Heavy precipitations  Wind > 20 kt







- Airport Elevation : 1684 ft
- IATA code : UDR


VAUD - Udaipur

CURRENT METAR :
  • 250900Z 30009KT 6000 SCT030 BKN100 34/08 Q1013 NOSIG

EXPIRED METARs :
  • 250830Z 32002KT 6000 SCT030 SCT100 34/08 Q1014 NOSIG
  • 250800Z 32008KT 6000 SCT030 SCT100 34/07 Q1014 NOSIG
  • 250730Z 26008KT 6000 SCT030 SCT100 34/07 Q1014 NOSIG
  • 250700Z 00004KT 6000 FEW035 SCT100 34/08 Q1015 NOSIG
  • 250630Z 09003KT 6000 FEW035 SCT100 33/07 Q1015 NOSIG
  • 250600Z 32004KT 6000 FEW035 SCT100 33/09 Q1016 NOSIG

TAF TAF VAUD
Valid from the 25 at 09:00 until the 25 at 18:00 UTC


250800Z 2509/2518 07005KT 5000 HZ FEW035
BECMG 2512/2514 VRB03KT 3000 HZ FEW035 SCT100
VABF FIR / Asia



MET'MAP, your aeronautical weather chart ! - Copyright ORBIFLY December 2007 - Disclaimer

ORBIFLY MET'MAP TEAM :

Programming & Development : Alexandra Zaïnal
Concept & Development : Baudouin d'Aumeries
Co-Development & Prog : Marc-Olivier Méhu
Technical & hardware support : Manuel Goepfert

Contact : metmap@orbifly.com




SOURCES & CREDITS :

   NOAA       Earth
Advisory